Time;durP1;ratioP1;P1;durP2;ratioP2;P2;SDS_P1;SDS_P2;PMS_P1;PMS_P2;Temp;Humidity;BMP_temperature;BMP_pressure;BME280_temperature;BME280_humidity;BME280_pressure;Samples;Min_cycle;Max_cycle;Signal;HPM_P1;HPM_P2
2022/06/15 00:01:04;;;;;;;3.43;3.10;;;13.50;99.90;;;;;;5054402;28;20446;-90
2022/06/15 00:03:33;;;;;;;5.43;3.23;;;13.40;99.90;;;;;;5054217;28;20434;-92
2022/06/15 00:06:08;;;;;;;4.00;2.97;;;;;;;;;;5053940;28;20450;-94
2022/06/15 00:08:35;;;;;;;3.93;3.53;;;;;;;;;;5055165;28;20433;-91
2022/06/15 00:11:08;;;;;;;4.10;3.40;;;13.30;99.90;;;;;;5055404;28;20434;-91
2022/06/15 00:13:35;;;;;;;4.47;3.30;;;;;;;;;;5055380;28;20427;-90
2022/06/15 00:16:04;;;;;;;4.93;3.80;;;13.30;99.90;;;;;;5053236;28;20973;-90
2022/06/15 00:18:32;;;;;;;3.03;2.73;;;;;;;;;;5052331;28;20449;-92
2022/06/15 00:20:59;;;;;;;7.30;3.40;;;;;;;;;;5055048;28;20451;-90
2022/06/15 00:23:29;;;;;;;4.90;3.37;;;13.10;99.90;;;;;;5055884;28;20451;-90
2022/06/15 00:25:57;;;;;;;3.53;3.10;;;;;;;;;;5058572;28;20433;-92
2022/06/15 00:28:24;;;;;;;4.10;3.70;;;;;;;;;;5050943;28;20490;-91
2022/06/15 00:30:51;;;;;;;3.30;3.00;;;;;;;;;;5048605;28;20454;-91
2022/06/15 00:33:19;;;;;;;4.23;3.33;;;;;;;;;;5050946;28;20435;-92
2022/06/15 00:35:56;;;;;;;4.03;3.27;;;13.00;99.90;;;;;;5053618;28;20478;-90
2022/06/15 00:38:23;;;;;;;4.10;3.40;;;;;;;;;;5053800;28;20470;-91
2022/06/15 00:40:51;;;;;;;3.97;3.57;;;13.00;99.90;;;;;;5054173;28;20458;-89
2022/06/15 00:43:31;;;;;;;3.17;2.97;;;12.90;99.90;;;;;;5054235;28;20463;-92
2022/06/15 00:45:59;;;;;;;4.63;3.43;;;;;;;;;;5054109;28;20929;-92
2022/06/15 00:48:26;;;;;;;6.77;3.63;;;;;;;;;;5049005;28;20458;-90
2022/06/15 00:50:53;;;;;;;4.17;3.63;;;;;;;;;;5050281;28;20454;-91
2022/06/15 00:53:20;;;;;;;3.17;2.87;;;;;;;;;;5054375;28;20813;-91
2022/06/15 00:55:48;;;;;;;4.53;3.30;;;;;;;;;;5051296;28;20982;-91
2022/06/15 00:58:16;;;;;;;7.00;3.50;;;12.70;99.90;;;;;;5058381;28;20441;-92
2022/06/15 01:00:43;;;;;;;4.27;3.40;;;;;;;;;;5058067;28;20442;-92
2022/06/15 01:03:13;;;;;;;4.17;3.70;;;12.80;99.90;;;;;;5055140;28;20431;-92
2022/06/15 01:05:53;;;;;;;4.10;3.70;;;12.70;99.90;;;;;;5056671;28;20439;-91
2022/06/15 01:08:28;;;;;;;13.00;3.13;;;12.80;99.90;;;;;;5058034;28;20453;-91
2022/06/15 01:11:23;;;;;;;4.27;3.87;;;12.70;99.90;;;;;;5052941;28;20453;-91
2022/06/15 01:14:31;;;;;;;4.20;3.60;;;12.70;99.90;;;;;;5056301;28;20509;-92
2022/06/15 01:17:11;;;;;;;4.20;3.40;;;12.70;99.90;;;;;;5056950;28;20481;-92
2022/06/15 01:20:08;;;;;;;4.73;3.67;;;12.60;99.90;;;;;;5054941;28;20829;-93
2022/06/15 01:23:15;;;;;;;5.13;3.63;;;12.60;99.90;;;;;;5055888;28;20461;-91
2022/06/15 01:25:46;;;;;;;3.83;3.27;;;12.50;99.90;;;;;;5063855;28;20462;-90
2022/06/15 01:28:38;;;;;;;3.63;3.33;;;12.50;99.90;;;;;;5064167;28;20529;-91
2022/06/15 01:31:17;;;;;;;4.70;3.70;;;12.50;99.90;;;;;;5064576;28;20446;-91
2022/06/15 01:34:01;;;;;;;3.37;3.00;;;12.50;99.90;;;;;;5052782;28;20953;-92
2022/06/15 01:36:36;;;;;;;4.40;3.40;;;12.50;99.90;;;;;;5054084;28;20478;-94
2022/06/15 01:39:07;;;;;;;3.77;3.47;;;12.50;99.90;;;;;;5053178;28;20466;-93
2022/06/15 01:41:37;;;;;;;3.63;3.00;;;12.40;99.90;;;;;;5052230;28;20984;-92
2022/06/15 01:44:10;;;;;;;4.47;3.33;;;12.40;99.90;;;;;;5057758;28;20439;-93
2022/06/15 01:46:43;;;;;;;3.80;3.27;;;12.40;99.90;;;;;;5050290;28;20550;-90
2022/06/15 01:49:15;;;;;;;4.13;3.47;;;12.40;99.90;;;;;;5050321;28;20937;-91
2022/06/15 01:51:44;;;;;;;3.30;3.00;;;12.40;99.90;;;;;;5053409;28;20473;-94
2022/06/15 01:54:16;;;;;;;4.20;3.80;;;12.40;99.90;;;;;;5054198;28;20765;-91
2022/06/15 01:56:46;;;;;;;3.10;2.80;;;12.40;99.90;;;;;;5054566;28;20504;-92
2022/06/15 01:59:18;;;;;;;6.90;3.73;;;12.40;99.90;;;;;;5052548;28;20447;-93
2022/06/15 02:01:53;;;;;;;3.80;3.40;;;12.30;99.90;;;;;;5054093;28;20812;-91
2022/06/15 02:04:29;;;;;;;5.33;3.90;;;12.30;99.90;;;;;;5057128;28;20442;-92
2022/06/15 02:07:10;;;;;;;4.17;3.50;;;12.20;99.90;;;;;;5056156;28;20434;-93
2022/06/15 02:09:45;;;;;;;3.40;3.10;;;12.30;99.90;;;;;;5053718;28;20973;-92
2022/06/15 02:12:14;;;;;;;4.60;3.57;;;12.30;99.90;;;;;;5056793;28;20492;-93
2022/06/15 02:14:44;;;;;;;4.60;3.67;;;12.10;99.90;;;;;;5051396;28;20458;-92
2022/06/15 02:17:17;;;;;;;3.67;3.13;;;12.10;99.90;;;;;;5051784;28;20977;-92
2022/06/15 02:19:48;;;;;;;5.80;3.60;;;12.10;99.90;;;;;;5051894;28;20461;-91
2022/06/15 02:22:20;;;;;;;4.83;3.23;;;12.10;99.90;;;;;;5056084;28;20438;-92
2022/06/15 02:24:50;;;;;;;3.40;3.10;;;12.10;99.90;;;;;;5056834;28;20447;-90
2022/06/15 02:27:20;;;;;;;3.80;3.10;;;12.00;99.90;;;;;;5052507;28;20795;-92
2022/06/15 02:29:50;;;;;;;5.20;3.70;;;11.90;99.90;;;;;;5053568;28;20435;-90
2022/06/15 02:32:19;;;;;;;3.50;3.20;;;12.00;99.90;;;;;;5052454;28;20434;-91
2022/06/15 02:34:46;;;;;;;3.77;3.00;;;;;;;;;;5054139;28;20419;-90
2022/06/15 02:37:13;;;;;;;3.30;3.00;;;;;;;;;;5053405;28;20470;-92
2022/06/15 02:39:41;;;;;;;3.50;3.20;;;;;;;;;;5057614;28;20447;-92
2022/06/15 02:42:25;;;;;;;4.13;3.27;;;11.80;99.90;;;;;;5057502;28;20447;-92
2022/06/15 02:44:53;;;;;;;5.17;3.00;;;11.90;99.90;;;;;;5052731;28;20438;-91
2022/06/15 02:47:32;;;;;;;4.00;2.70;;;11.70;99.90;;;;;;5060221;28;20466;-92
2022/06/15 02:50:00;;;;;;;5.60;3.17;;;;;;;;;;5060949;28;20638;-90
2022/06/15 02:52:32;;;;;;;3.00;2.80;;;11.70;99.90;;;;;;5055775;28;20451;-89
2022/06/15 02:54:59;;;;;;;4.10;2.73;;;11.70;99.90;;;;;;5060854;28;20476;-91
2022/06/15 02:57:29;;;;;;;3.60;3.00;;;11.70;99.90;;;;;;5061080;28;20482;-90
2022/06/15 02:59:56;;;;;;;3.40;3.10;;;;;;;;;;5053259;28;20443;-92
2022/06/15 03:02:23;;;;;;;3.70;3.20;;;;;;;;;;5055936;28;20442;-91
2022/06/15 03:04:53;;;;;;;3.67;3.23;;;11.60;99.90;;;;;;5055378;28;20921;-91
2022/06/15 03:07:22;;;;;;;3.87;3.10;;;;;;;;;;5055367;28;20435;-94
2022/06/15 03:09:49;;;;;;;3.80;3.30;;;;;;;;;;5055473;28;20968;-90
2022/06/15 03:12:16;;;;;;;4.93;3.07;;;;;;;;;;5055694;28;20454;-90
2022/06/15 03:14:44;;;;;;;5.30;3.00;;;;;;;;;;5055627;28;20924;-90
2022/06/15 03:17:11;;;;;;;3.50;3.20;;;;;;;;;;5055264;28;20479;-90
2022/06/15 03:19:38;;;;;;;7.57;4.07;;;;;;;;;;5054867;28;20435;-91
2022/06/15 03:22:06;;;;;;;3.97;3.50;;;11.40;99.90;;;;;;5054669;28;20462;-91
2022/06/15 03:24:33;;;;;;;3.57;3.27;;;;;;;;;;5055349;28;20423;-91
2022/06/15 03:27:00;;;;;;;3.43;3.03;;;;;;;;;;5055111;28;20438;-91
2022/06/15 03:29:28;;;;;;;3.70;3.17;;;;;;;;;;5056453;28;20458;-91
2022/06/15 03:31:56;;;;;;;3.60;3.30;;;;;;;;;;5055710;28;20435;-90
2022/06/15 03:34:23;;;;;;;3.47;3.17;;;;;;;;;;5055661;28;20455;-91
2022/06/15 03:36:50;;;;;;;4.10;3.20;;;;;;;;;;5054310;28;20454;-93
2022/06/15 03:39:18;;;;;;;7.10;3.90;;;;;;;;;;5054968;28;20441;-92
2022/06/15 03:41:45;;;;;;;4.03;3.40;;;;;;;;;;5055708;28;20445;-92
2022/06/15 03:44:13;;;;;;;4.27;3.67;;;;;;;;;;5055694;28;20450;-93
2022/06/15 03:46:40;;;;;;;3.13;2.83;;;;;;;;;;5056633;28;20909;-91
2022/06/15 03:49:07;;;;;;;4.07;3.60;;;;;;;;;;5057039;28;20497;-92
2022/06/15 03:51:34;;;;;;;5.43;3.47;;;;;;;;;;5056323;28;20434;-91
2022/06/15 03:54:01;;;;;;;3.60;2.97;;;;;;;;;;5060795;28;20435;-90
2022/06/15 03:56:43;;;;;;;4.53;3.67;;;11.60;99.90;;;;;;5060962;28;20986;-92
2022/06/15 03:59:11;;;;;;;4.17;3.70;;;11.70;99.90;;;;;;5054618;28;20462;-91
2022/06/15 04:01:39;;;;;;;4.70;3.43;;;;;;;;;;5052805;28;20447;-92
2022/06/15 04:04:06;;;;;;;4.53;3.43;;;11.70;99.90;;;;;;5053046;28;20434;-90
2022/06/15 04:06:34;;;;;;;5.47;3.33;;;;;;;;;;5048966;28;20500;-93
2022/06/15 04:09:00;;;;;;;3.60;3.30;;;;;;;;;;5051769;28;20454;-94
2022/06/15 04:14:13;;;;;;;5.00;3.77;;;11.70;99.90;;;;;;5055014;28;20445;-94
2022/06/15 04:16:40;;;;;;;4.47;3.70;;;;;;;;;;5050505;28;20455;-92
2022/06/15 04:19:08;;;;;;;4.93;3.60;;;;;;;;;;5049089;28;20494;-93
2022/06/15 04:21:35;;;;;;;5.37;3.20;;;;;;;;;;5053680;28;20450;-91
2022/06/15 04:24:02;;;;;;;4.37;3.50;;;;;;;;;;5054143;28;20449;-89
2022/06/15 04:26:29;;;;;;;4.20;3.53;;;;;;;;;;5051362;28;20435;-91
2022/06/15 04:28:57;;;;;;;3.53;3.23;;;;;;;;;;5050757;28;20984;-91
2022/06/15 04:31:26;;;;;;;3.50;3.17;;;12.50;99.90;;;;;;5052285;28;20458;-90
2022/06/15 04:33:53;;;;;;;6.23;3.50;;;;;;;;;;5051347;28;20462;-91
2022/06/15 04:36:20;;;;;;;3.20;2.90;;;;;;;;;;5052281;28;20454;-90
2022/06/15 04:38:47;;;;;;;5.33;3.70;;;;;;;;;;5057662;28;20494;-90
2022/06/15 04:41:14;;;;;;;8.50;4.80;;;;;;;;;;5058184;28;20447;-89
2022/06/15 04:43:41;;;;;;;4.63;3.77;;;;;;;;;;5054893;28;20423;-89
2022/06/15 04:46:08;;;;;;;3.40;3.10;;;;;;;;;;5057963;28;20442;-89
2022/06/15 04:48:36;;;;;;;4.27;3.70;;;13.60;99.90;;;;;;5058022;28;20946;-91
2022/06/15 04:51:11;;;;;;;3.40;3.10;;;13.80;99.90;;;;;;5057074;28;20549;-89
2022/06/15 04:53:38;;;;;;;5.07;4.13;;;;;;;;;;5057474;28;20445;-90
2022/06/15 04:56:06;;;;;;;6.37;3.40;;;;;;;;;;5057503;28;20481;-90
2022/06/15 04:58:33;;;;;;;3.90;3.10;;;;;;;;;;5057242;28;20486;-89
2022/06/15 05:01:00;;;;;;;5.40;3.07;;;14.70;99.90;;;;;;5057350;28;20446;-90
2022/06/15 05:03:28;;;;;;;4.23;3.33;;;;;;;;;;5057328;28;20449;-90
2022/06/15 05:05:56;;;;;;;4.20;3.50;;;15.20;99.90;;;;;;5056330;28;20917;-90
2022/06/15 05:08:24;;;;;;;5.00;3.30;;;;;;;;;;5053515;28;20446;-92
2022/06/15 05:10:51;;;;;;;4.20;3.10;;;;;;;;;;5057249;28;20453;-90
2022/06/15 05:13:18;;;;;;;4.40;2.93;;;;;;;;;;5059688;28;20446;-90
2022/06/15 05:15:45;;;;;;;4.00;2.80;;;;;;;;;;5058528;28;20458;-90
2022/06/15 05:18:12;;;;;;;2.80;2.60;;;;;;;;;;5059118;28;20512;-91
2022/06/15 05:20:40;;;;;;;2.97;2.70;;;16.30;99.90;;;;;;5052147;28;20470;-91
2022/06/15 05:23:13;;;;;;;3.80;3.30;;;16.40;99.90;;;;;;5059828;28;20469;-90
2022/06/15 05:25:40;;;;;;;3.53;3.20;;;;;;;;;;5056619;28;20458;-91
2022/06/15 05:28:08;;;;;;;3.80;2.83;;;;;;;;;;5056746;28;20449;-92
2022/06/15 05:30:35;;;;;;;5.23;3.13;;;;;;;;;;5052361;28;20478;-90
2022/06/15 05:33:02;;;;;;;2.53;2.33;;;;;;;;;;5056465;28;20447;-89
2022/06/15 05:35:30;;;;;;;4.67;3.20;;;;;;;;;;5041844;28;20930;-93
2022/06/15 05:37:57;;;;;;;3.83;2.97;;;;;;;;;;5036511;28;20490;-92
2022/06/15 05:40:25;;;;;;;5.90;2.90;;;;;;;;;;5038954;28;20448;-95
2022/06/15 05:42:53;;;;;;;3.03;2.70;;;;;;;;;;5023883;28;20448;-94
2022/06/15 05:45:20;;;;;;;2.97;2.67;;;;;;;;;;5043321;28;20498;-94
2022/06/15 05:47:47;;;;;;;3.90;2.70;;;;;;;;;;5040624;28;20965;-92
2022/06/15 05:50:15;;;;;;;3.63;3.00;;;21.40;92.40;;;;;;5038723;28;20463;-94
2022/06/15 05:52:45;;;;;;;3.50;2.53;;;;;;;;;;5033657;28;20470;-96
2022/06/15 05:55:16;;;;;;;3.17;2.87;;;;;;;;;;5041064;28;20438;-95
2022/06/15 05:57:44;;;;;;;4.93;3.40;;;22.30;90.30;;;;;;5040696;28;20483;-92
2022/06/15 06:00:12;;;;;;;3.40;2.83;;;22.30;86.90;;;;;;5035341;28;20447;-91
2022/06/15 06:02:40;;;;;;;3.73;3.17;;;;;;;;;;5034895;28;20451;-91
2022/06/15 06:05:08;;;;;;;3.53;3.23;;;;;;;;;;5027092;28;20513;-92
2022/06/15 06:07:36;;;;;;;3.43;2.90;;;;;;;;;;5037363;28;20452;-93
2022/06/15 06:10:03;;;;;;;2.97;2.57;;;;;;;;;;5038483;28;20448;-88
2022/06/15 06:12:30;;;;;;;3.50;2.90;;;;;;;;;;5037147;28;20810;-89
2022/06/15 06:14:58;;;;;;;3.93;2.80;;;;;;;;;;5039117;28;20448;-90
2022/06/15 06:17:28;;;;;;;3.37;2.80;;;;;;;;;;5038798;28;20428;-94
2022/06/15 06:19:55;;;;;;;3.60;3.30;;;;;;;;;;5038108;28;20454;-95
2022/06/15 06:22:22;;;;;;;3.50;3.20;;;;;;;;;;5036357;28;20462;-91
2022/06/15 06:24:51;;;;;;;3.53;2.80;;;23.40;80.60;;;;;;5039138;28;20805;-90
2022/06/15 06:27:18;;;;;;;3.73;2.97;;;;;;;;;;5039129;28;20444;-92
2022/06/15 06:29:49;;;;;;;2.97;2.77;;;;;;;;;;5039925;28;20435;-94
2022/06/15 06:32:17;;;;;;;3.60;2.80;;;22.90;83.80;;;;;;5041773;28;20454;-88
2022/06/15 06:34:45;;;;;;;5.67;3.03;;;;;;;;;;5037861;28;20443;-95
2022/06/15 06:37:14;;;;;;;3.50;3.17;;;22.80;82.60;;;;;;5038027;28;20474;-93
2022/06/15 06:39:41;;;;;;;6.27;2.90;;;;;;;;;;5031180;28;20494;-94
2022/06/15 06:42:09;;;;;;;5.00;3.07;;;;;;;;;;5037060;28;20448;-91
2022/06/15 06:44:37;;;;;;;3.13;2.83;;;;;;;;;;5043872;28;20513;-91
2022/06/15 06:47:04;;;;;;;3.63;3.00;;;;;;;;;;5035336;28;20479;-89
2022/06/15 06:49:33;;;;;;;2.97;2.70;;;;;;;;;;5035230;28;20467;-88
2022/06/15 06:52:00;;;;;;;4.87;2.90;;;;;;;;;;5033841;28;20551;-86
2022/06/15 06:54:27;;;;;;;3.30;3.00;;;;;;;;;;5036198;28;20459;-93
2022/06/15 06:56:55;;;;;;;3.10;2.90;;;;;;;;;;5037009;28;20495;-91
2022/06/15 06:59:22;;;;;;;3.27;2.97;;;;;;;;;;5037494;28;20493;-85
2022/06/15 07:01:49;;;;;;;2.97;2.77;;;;;;;;;;5034535;28;20448;-86
2022/06/15 07:04:18;;;;;;;3.43;3.00;;;24.70;84.20;;;;;;5034256;28;20447;-86
2022/06/15 07:06:46;;;;;;;3.50;3.20;;;23.40;82.00;;;;;;5033694;28;20444;-85
2022/06/15 07:09:13;;;;;;;4.30;3.50;;;;;;;;;;5030623;28;20463;-93
2022/06/15 07:11:42;;;;;;;3.60;3.00;;;23.10;85.50;;;;;;5040877;28;20456;-88
2022/06/15 07:14:09;;;;;;;3.33;2.87;;;;;;;;;;5014286;28;20455;-87
2022/06/15 07:16:37;;;;;;;3.23;2.97;;;23.10;84.40;;;;;;5014205;28;20449;-88
2022/06/15 07:19:04;;;;;;;4.67;3.53;;;;;;;;;;5014047;28;20496;-84
2022/06/15 07:21:31;;;;;;;3.93;3.57;;;;;;;;;;5012553;28;20467;-86
2022/06/15 07:24:04;;;;;;;3.80;3.20;;;25.00;78.10;;;;;;5014424;28;20449;-83
2022/06/15 07:26:34;;;;;;;3.17;2.60;;;25.30;78.10;;;;;;5014006;28;20800;-83
2022/06/15 07:29:02;;;;;;;3.17;2.87;;;25.60;76.70;;;;;;5013560;28;20455;-84
2022/06/15 07:31:32;;;;;;;3.63;2.97;;;25.50;78.60;;;;;;5011104;28;20449;-84
2022/06/15 07:34:00;;;;;;;5.43;3.73;;;;;;;;;;5014217;28;20451;-88
2022/06/15 07:36:27;;;;;;;3.17;2.97;;;;;;;;;;5013096;28;20998;-87
2022/06/15 07:38:56;;;;;;;2.97;2.77;;;25.60;77.00;;;;;;5020098;28;20487;-91
2022/06/15 07:41:26;;;;;;;3.10;2.90;;;25.60;75.30;;;;;;5015753;28;20447;-86
2022/06/15 07:43:53;;;;;;;3.00;2.80;;;25.30;75.40;;;;;;5014346;28;20460;-88
2022/06/15 07:46:21;;;;;;;3.17;2.97;;;;;;;;;;5010086;28;20445;-84
2022/06/15 07:51:35;;;;;;;3.27;2.97;;;27.00;71.30;;;;;;5013644;28;20440;-87
2022/06/15 07:54:04;;;;;;;3.53;3.00;;;26.40;72.50;;;;;;5019430;28;20435;-84
2022/06/15 07:56:33;;;;;;;3.50;3.07;;;26.00;74.90;;;;;;5013784;28;20465;-87
2022/06/15 07:59:00;;;;;;;3.17;2.87;;;;;;;;;;5013931;28;20484;-84
2022/06/15 08:01:28;;;;;;;2.63;2.43;;;;;;;;;;5010909;28;20847;-88
2022/06/15 08:03:56;;;;;;;4.50;3.20;;;;;;;;;;5019751;28;20943;-89
2022/06/15 08:06:23;;;;;;;4.13;3.00;;;27.60;67.90;;;;;;5032723;28;20452;-87
2022/06/15 08:08:50;;;;;;;2.87;2.67;;;;;;;;;;5034135;28;20447;-90
2022/06/15 08:11:18;;;;;;;3.27;2.97;;;;;;;;;;5034374;28;20458;-87
2022/06/15 08:13:47;;;;;;;3.30;2.50;;;27.30;69.80;;;;;;5022045;28;20455;-85
2022/06/15 08:16:15;;;;;;;3.30;2.80;;;27.00;69.20;;;;;;5042607;28;20453;-91
2022/06/15 08:18:48;;;;;;;3.60;2.87;;;27.50;69.60;;;;;;5038851;28;20575;-90
2022/06/15 08:21:20;;;;;;;3.47;2.93;;;27.70;68.40;;;;;;5033551;28;20450;-87
2022/06/15 08:23:50;;;;;;;3.90;3.50;;;27.50;69.00;;;;;;5035665;28;20838;-90
2022/06/15 08:26:22;;;;;;;3.60;2.90;;;27.70;69.90;;;;;;5029062;28;20493;-88
2022/06/15 08:28:55;;;;;;;4.53;3.07;;;28.30;66.80;;;;;;5034831;28;20440;-86
2022/06/15 08:31:22;;;;;;;3.03;2.83;;;;;;;;;;5028558;28;20452;-86
2022/06/15 08:33:49;;;;;;;3.30;3.00;;;;;;;;;;5037228;28;20447;-85
2022/06/15 08:36:17;;;;;;;3.83;3.30;;;;;;;;;;5031944;28;20478;-86
2022/06/15 08:38:44;;;;;;;4.57;3.27;;;;;;;;;;5033088;28;20505;-86
2022/06/15 08:41:19;;;;;;;2.93;2.63;;;28.70;74.40;;;;;;5030680;28;20463;-86
2022/06/15 08:44:01;;;;;;;3.50;3.07;;;28.00;72.50;;;;;;5034448;28;20454;-91
2022/06/15 08:46:39;;;;;;;3.60;3.23;;;28.80;65.10;;;;;;5039195;28;20454;-87
2022/06/15 08:49:19;;;;;;;3.47;3.17;;;27.90;65.30;;;;;;5045439;28;20504;-83
2022/06/15 08:51:51;;;;;;;3.67;3.37;;;27.90;63.70;;;;;;5047162;28;20447;-85
2022/06/15 08:54:25;;;;;;;3.67;3.33;;;29.00;64.50;;;;;;5046827;28;20445;-88
2022/06/15 08:56:54;;;;;;;3.53;3.30;;;29.40;74.80;;;;;;5050345;28;20470;-90
2022/06/15 08:59:29;;;;;;;3.67;3.37;;;29.90;64.80;;;;;;5053399;28;20486;-94
2022/06/15 09:02:04;;;;;;;4.23;3.73;;;29.60;64.90;;;;;;5024584;28;20823;-91
2022/06/15 09:04:41;;;;;;;3.40;2.90;;;28.60;61.90;;;;;;5013662;28;20456;-88
2022/06/15 09:07:19;;;;;;;3.50;3.20;;;29.20;71.20;;;;;;5015739;28;20513;-88
2022/06/15 09:10:02;;;;;;;3.30;3.03;;;29.60;64.70;;;;;;5014589;28;20510;-92
2022/06/15 09:12:55;;;;;;;3.50;3.20;;;29.70;66.10;;;;;;5009836;28;20448;-90
2022/06/15 09:15:34;;;;;;;4.30;3.13;;;30.10;61.10;;;;;;5041235;28;20451;-89
2022/06/15 09:18:05;;;;;;;2.97;2.77;;;30.50;67.00;;;;;;5059423;28;20446;-84
2022/06/15 09:20:37;;;;;;;3.37;3.07;;;30.90;60.30;;;;;;5040285;28;20487;-93
2022/06/15 09:23:08;;;;;;;3.10;2.80;;;30.70;60.60;;;;;;5040575;28;20530;-89
2022/06/15 09:25:41;;;;;;;4.60;3.90;;;29.70;60.20;;;;;;5033562;28;20455;-91
2022/06/15 09:28:15;;;;;;;3.97;3.10;;;30.30;63.30;;;;;;5038232;28;20443;-88
2022/06/15 09:30:44;;;;;;;4.23;3.43;;;30.70;61.40;;;;;;5038465;28;20455;-90
2022/06/15 09:33:16;;;;;;;5.40;3.30;;;30.40;57.20;;;;;;5038098;28;20482;-90
2022/06/15 09:35:46;;;;;;;2.87;2.57;;;29.70;58.40;;;;;;5037547;28;20455;-90
2022/06/15 09:38:16;;;;;;;3.63;3.33;;;30.10;56.00;;;;;;5036519;28;20454;-87
2022/06/15 09:40:50;;;;;;;3.07;2.70;;;30.70;61.00;;;;;;5036948;28;20497;-85
2022/06/15 09:43:26;;;;;;;3.20;2.90;;;31.10;59.50;;;;;;5037032;28;20968;-85
2022/06/15 09:46:04;;;;;;;2.80;2.60;;;31.20;55.70;;;;;;5036970;28;20447;-85
2022/06/15 09:48:41;;;;;;;3.30;3.03;;;30.40;58.00;;;;;;5041998;28;20459;-85
2022/06/15 09:51:13;;;;;;;4.00;2.80;;;29.80;57.90;;;;;;5039311;28;20451;-89
2022/06/15 09:53:45;;;;;;;2.80;2.60;;;30.50;58.40;;;;;;5042471;28;20538;-85
2022/06/15 09:56:14;;;;;;;5.00;2.80;;;30.50;58.10;;;;;;5038030;28;20487;-88
2022/06/15 09:58:47;;;;;;;3.43;2.70;;;30.60;61.40;;;;;;5038095;28;21006;-93
2022/06/15 10:01:16;;;;;;;2.73;2.43;;;30.70;54.10;;;;;;5035024;28;20451;-89
2022/06/15 10:03:47;;;;;;;2.33;2.13;;;31.00;50.00;;;;;;5037010;28;20454;-85
2022/06/15 10:06:20;;;;;;;2.50;2.30;;;31.00;52.40;;;;;;5033978;28;20451;-84
2022/06/15 10:08:47;;;;;;;2.83;2.03;;;;;;;;;;5035727;28;20456;-89
2022/06/15 10:11:18;;;;;;;3.20;2.30;;;31.50;56.60;;;;;;5036472;28;20950;-92
2022/06/15 10:13:46;;;;;;;3.37;2.70;;;;;;;;;;5040194;28;20452;-91
2022/06/15 10:16:25;;;;;;;5.60;3.10;;;31.60;49.00;;;;;;5037959;28;20795;-84
2022/06/15 10:18:55;;;;;;;2.73;2.53;;;32.10;54.80;;;;;;5036612;28;20815;-90
2022/06/15 10:21:25;;;;;;;3.10;2.83;;;32.00;55.20;;;;;;5037836;28;20444;-85
2022/06/15 10:23:56;;;;;;;9.00;3.10;;;30.90;54.30;;;;;;5040726;28;20450;-86
2022/06/15 10:26:27;;;;;;;2.60;2.37;;;31.70;55.60;;;;;;5038996;28;20444;-91
2022/06/15 10:28:55;;;;;;;2.83;2.60;;;31.20;51.40;;;;;;5040201;28;20957;-89
2022/06/15 10:31:28;;;;;;;2.80;2.50;;;31.10;51.90;;;;;;5037298;28;20447;-87
2022/06/15 10:33:57;;;;;;;2.43;2.23;;;31.10;50.70;;;;;;5034682;28;20477;-86
2022/06/15 10:36:29;;;;;;;2.30;2.10;;;31.60;53.40;;;;;;5033622;28;20487;-88
2022/06/15 10:39:02;;;;;;;3.03;2.83;;;31.10;50.40;;;;;;5034683;28;20823;-88
2022/06/15 10:41:49;;;;;;;2.50;2.30;;;31.00;47.60;;;;;;5034694;28;20455;-86
2022/06/15 10:44:27;;;;;;;2.60;2.40;;;31.20;51.30;;;;;;5034572;28;20453;-87
2022/06/15 10:46:59;;;;;;;3.03;2.50;;;31.50;54.30;;;;;;5034762;28;20474;-87
2022/06/15 10:49:29;;;;;;;3.07;2.53;;;31.10;49.50;;;;;;5034705;28;20443;-88
2022/06/15 10:51:56;;;;;;;3.30;2.90;;;;;;;;;;5033504;28;20448;-88
2022/06/15 11:02:06;;;;;;;5.20;2.70;;;31.90;46.90;;;;;;5019545;28;20475;-87
2022/06/15 11:03:17;;;;;;;238.47;132.23;;;31.80;63.10;;;;;;5014630;28;20452;-86
2022/06/15 11:05:45;;;;;;;4.90;4.50;;;32.40;62.30;;;;;;5013517;28;20448;-86
2022/06/15 11:08:15;;;;;;;4.07;3.67;;;;;;;;;;5014813;28;20480;-87
2022/06/15 11:10:45;;;;;;;3.57;3.27;;;31.60;58.10;;;;;;5014690;28;20594;-89
2022/06/15 11:13:29;;;;;;;24.40;20.23;;;31.70;58.30;;;;;;5014259;28;20609;-87
2022/06/15 11:18:46;;;;;;;3.60;3.30;;;32.30;50.20;;;;;;5014513;28;20451;-87
2022/06/15 11:21:16;;;;;;;3.83;2.90;;;31.60;47.30;;;;;;5012913;28;20499;-86
2022/06/15 11:23:55;;;;;;;2.80;2.60;;;31.60;49.50;;;;;;5014055;28;20453;-87
2022/06/15 11:29:37;;;;;;;3.20;3.00;;;31.50;50.10;;;;;;5014298;28;20499;-88
2022/06/15 11:32:11;;;;;;;3.87;3.33;;;31.60;49.70;;;;;;5013984;28;20508;-85
2022/06/15 11:34:51;;;;;;;3.97;3.00;;;31.30;49.30;;;;;;5014008;28;20455;-85
2022/06/15 11:37:23;;;;;;;3.40;3.10;;;30.50;48.90;;;;;;5012850;28;20444;-88
2022/06/15 11:39:56;;;;;;;4.20;3.30;;;31.20;57.10;;;;;;5013745;28;20487;-91
2022/06/15 11:42:24;;;;;;;4.27;3.87;;;31.30;66.70;;;;;;5013652;28;20444;-88
2022/06/15 11:44:52;;;;;;;17.37;16.03;;;;;;;;;;5021356;28;20455;-89
2022/06/15 11:47:30;;;;;;;4.80;3.20;;;31.20;49.00;;;;;;5034740;28;20475;-90
2022/06/15 11:50:07;;;;;;;3.83;3.53;;;31.10;48.40;;;;;;5035923;28;20530;-93
2022/06/15 11:52:48;;;;;;;3.07;2.87;;;30.50;50.30;;;;;;5033197;28;20451;-84
2022/06/15 11:55:31;;;;;;;3.07;2.77;;;30.70;46.10;;;;;;5033632;28;20513;-85
2022/06/15 11:58:20;;;;;;;3.70;3.07;;;30.40;45.50;;;;;;5035976;28;20447;-86
2022/06/15 12:00:54;;;;;;;4.20;3.40;;;30.10;46.50;;;;;;5045187;28;20475;-86
2022/06/15 12:03:49;;;;;;;3.17;2.90;;;30.50;46.60;;;;;;5050734;28;20443;-85
2022/06/15 12:06:25;;;;;;;3.83;3.30;;;30.70;45.90;;;;;;5034573;28;20459;-89
2022/06/15 12:09:01;;;;;;;4.10;3.70;;;31.20;45.50;;;;;;5029062;28;20462;-87
2022/06/15 12:14:28;;;;;;;4.10;3.03;;;31.30;45.20;;;;;;5034395;28;20901;-91
2022/06/15 12:17:01;;;;;;;3.77;3.47;;;31.50;49.30;;;;;;5035114;28;20447;-88
2022/06/15 12:19:37;;;;;;;3.83;3.20;;;31.80;48.30;;;;;;5034192;28;20965;-89
2022/06/15 12:22:16;;;;;;;3.63;2.83;;;31.80;47.90;;;;;;5032384;28;20439;-92
2022/06/15 12:24:51;;;;;;;4.53;2.80;;;31.70;46.70;;;;;;5050920;28;20443;-91
2022/06/15 12:27:25;;;;;;;3.23;2.93;;;31.30;43.60;;;;;;5054455;28;20438;-91
2022/06/15 12:29:56;;;;;;;4.00;3.47;;;31.00;43.60;;;;;;5054009;28;20443;-91
2022/06/15 12:32:36;;;;;;;5.03;3.90;;;;;;;;;;5053261;28;20538;-89
2022/06/15 12:35:26;;;;;;;3.83;3.10;;;30.90;50.10;;;;;;5053667;28;20949;-87
2022/06/15 12:37:58;;;;;;;3.63;3.30;;;31.20;52.50;;;;;;5052073;28;20461;-89
2022/06/15 12:40:31;;;;;;;4.00;3.07;;;31.00;48.10;;;;;;5054280;28;20996;-89
2022/06/15 12:43:15;;;;;;;4.73;3.27;;;31.60;48.10;;;;;;5053285;28;20482;-89
2022/06/15 12:45:46;;;;;;;3.87;3.50;;;31.10;49.00;;;;;;5049691;28;20449;-89
2022/06/15 12:48:23;;;;;;;3.57;3.27;;;31.20;51.00;;;;;;5053157;28;20446;-87
2022/06/15 12:51:00;;;;;;;3.73;3.37;;;31.30;46.10;;;;;;5056247;28;20442;-89
2022/06/15 12:53:39;;;;;;;3.83;3.30;;;30.50;47.00;;;;;;5057759;28;20469;-87
2022/06/15 12:56:18;;;;;;;5.40;4.93;;;31.10;55.90;;;;;;5056578;28;20500;-90
2022/06/15 12:59:01;;;;;;;3.73;3.27;;;31.50;51.00;;;;;;5051554;28;20450;-91
2022/06/15 13:01:36;;;;;;;3.50;3.20;;;31.70;52.30;;;;;;5056470;28;20490;-87
2022/06/15 13:04:20;;;;;;;3.27;2.93;;;32.10;45.50;;;;;;5056329;28;20453;-88
2022/06/15 13:07:18;;;;;;;3.50;2.87;;;31.50;43.90;;;;;;5055042;28;20442;-88
2022/06/15 13:10:15;;;;;;;3.90;3.10;;;32.40;50.50;;;;;;5056444;28;20442;-89
2022/06/15 13:12:44;;;;;;;3.63;3.30;;;32.50;46.40;;;;;;5056318;28;20439;-89
2022/06/15 13:15:21;;;;;;;3.57;3.27;;;32.70;47.20;;;;;;5056075;28;20953;-89
2022/06/15 13:20:32;;;;;;;3.37;3.00;;;;;;;;;;5015362;28;20500;-89
2022/06/15 13:22:59;;;;;;;3.30;3.00;;;;;;;;;;5016483;28;20448;-90
2022/06/15 13:25:28;;;;;;;3.40;3.10;;;31.40;44.50;;;;;;5018022;28;20456;-90
2022/06/15 13:28:22;;;;;;;4.80;2.80;;;31.70;47.70;;;;;;5016831;28;20477;-89
2022/06/15 13:30:54;;;;;;;3.47;3.17;;;31.40;42.50;;;;;;5017985;28;20448;-89
2022/06/15 13:33:42;;;;;;;3.70;3.40;;;31.60;47.70;;;;;;5016400;28;20551;-85
2022/06/15 13:36:22;;;;;;;4.50;3.13;;;32.00;74.90;;;;;;5014784;28;20459;-86
2022/06/15 13:38:51;;;;;;;2.97;2.67;;;;;;;;;;5016055;28;20482;-86
2022/06/15 13:41:25;;;;;;;3.53;3.20;;;31.80;46.80;;;;;;5015889;28;20495;-86
2022/06/15 13:44:13;;;;;;;2.97;2.70;;;31.80;83.80;;;;;;5015559;28;20455;-84
2022/06/15 13:46:53;;;;;;;3.13;2.80;;;32.20;45.90;;;;;;5018904;28;20959;-84
2022/06/15 13:49:25;;;;;;;3.73;3.30;;;32.10;45.90;;;;;;5022186;28;20562;-84
2022/06/15 13:51:57;;;;;;;4.77;3.40;;;32.10;41.60;;;;;;5034415;28;20943;-85
2022/06/15 13:54:50;;;;;;;3.47;3.17;;;32.20;45.70;;;;;;5035394;28;20443;-85
2022/06/15 13:57:31;;;;;;;4.90;3.13;;;31.80;46.00;;;;;;5038153;28;20478;-83
2022/06/15 14:00:07;;;;;;;3.87;3.30;;;32.00;46.70;;;;;;5035244;28;20513;-87
2022/06/15 14:02:51;;;;;;;3.87;3.33;;;31.40;68.30;;;;;;5034667;28;20451;-85
2022/06/15 14:05:42;;;;;;;4.67;3.10;;;31.80;46.60;;;;;;5033870;28;20474;-85
2022/06/15 14:08:36;;;;;;;3.43;2.90;;;31.90;46.80;;;;;;5034874;28;20448;-83
2022/06/15 14:11:26;;;;;;;4.50;3.20;;;32.20;44.60;;;;;;5034701;28;21082;-85
2022/06/15 14:14:24;;;;;;;3.30;3.03;;;32.10;41.30;;;;;;5035213;28;20448;-86
2022/06/15 14:17:38;;;;;;;3.50;3.30;;;31.70;80.60;;;;;;5034944;28;20454;-84